Time;durP1;ratioP1;P1;durP2;ratioP2;P2;SDS_P1;SDS_P2;PMS_P1;PMS_P2;Temp;Humidity;BMP_temperature;BMP_pressure;BME280_temperature;BME280_humidity;BME280_pressure;Samples;Min_cycle;Max_cycle;Signal;HPM_P1;HPM_P2
2024/01/27 00:00:03;;;;;;;1.50;1.40;;;;;;;-143.84;83.66;45235.69;5094585;28;20440;-61
2024/01/27 00:02:31;;;;;;;2.70;1.10;;;;;;;-143.84;83.69;45235.69;5080337;28;20437;-61
2024/01/27 00:04:58;;;;;;;0.80;0.60;;;;;;;-143.84;84.04;45207.13;5073901;28;20464;-61
2024/01/27 00:07:27;;;;;;;0.90;0.70;;;;;;;-143.84;83.44;45233.78;5074086;28;20458;-60
2024/01/27 00:09:59;;;;;;;0.80;0.50;;;;;;;-143.84;83.37;45239.50;5073858;28;20530;-60
2024/01/27 00:12:28;;;;;;;0.87;0.67;;;;;;;-143.84;83.42;45231.88;5073434;28;20524;-60
2024/01/27 00:14:55;;;;;;;1.00;0.70;;;;;;;-143.84;83.08;45226.16;5073677;28;20438;-61
2024/01/27 00:17:25;;;;;;;0.80;0.50;;;;;;;-143.84;83.34;45235.69;5073863;28;20444;-60
2024/01/27 00:19:52;;;;;;;0.90;0.80;;;;;;;-143.84;84.09;45249.00;5073822;28;20437;-60
2024/01/27 00:22:20;;;;;;;0.80;0.50;;;;;;;-143.84;83.19;45205.22;5073560;28;20448;-60
2024/01/27 00:24:47;;;;;;;0.80;0.60;;;;;;;-143.84;83.63;45231.88;5073914;28;20535;-60
2024/01/27 00:27:16;;;;;;;0.90;0.57;;;;;;;-143.84;83.72;45231.88;5073581;28;20501;-61
2024/01/27 00:29:49;;;;;;;0.80;0.40;;;;;;;-143.84;83.01;45243.31;5073869;28;20477;-61
2024/01/27 00:32:19;;;;;;;0.80;0.60;;;;;;;-143.84;83.03;45241.41;5072509;28;20477;-61
2024/01/27 00:34:46;;;;;;;0.80;0.50;;;;;;;-143.84;83.42;45224.25;5072976;28;20507;-61
2024/01/27 00:37:14;;;;;;;0.80;0.50;;;;;;;-143.84;83.12;45220.44;5073906;28;20433;-60
2024/01/27 00:39:43;;;;;;;1.07;0.97;;;;;;;-143.84;84.18;45239.50;5073212;28;20445;-61
2024/01/27 00:42:18;;;;;;;5.70;0.90;;;;;;;-143.84;85.56;45233.78;5079347;28;20440;-60
2024/01/27 00:44:48;;;;;;;1.13;1.03;;;;;;;-143.84;86.23;45237.59;5092587;28;20531;-61
2024/01/27 00:47:16;;;;;;;1.40;1.00;;;;;;;-143.84;87.44;45228.06;5093542;28;20454;-61
2024/01/27 00:49:43;;;;;;;0.80;0.50;;;;;;;-143.84;88.13;45256.63;5093958;28;20472;-60
2024/01/27 00:52:11;;;;;;;2.67;2.00;;;;;;;-143.84;88.07;45237.59;5093905;28;20432;-60
2024/01/27 00:54:39;;;;;;;0.80;0.70;;;;;;;-143.84;88.19;45245.19;5093331;28;20447;-61
2024/01/27 00:57:06;;;;;;;0.93;0.73;;;;;;;-143.84;88.44;45260.44;5093440;28;20487;-60
2024/01/27 00:59:33;;;;;;;1.10;1.00;;;;;;;-143.84;88.25;45239.50;5093409;28;20441;-61
2024/01/27 01:02:08;;;;;;;1.07;1.00;;;;;;;-143.84;87.52;45262.34;5093351;28;20432;-60
2024/01/27 01:04:40;;;;;;;0.80;0.70;;;;;;;-143.84;87.72;45239.50;5092976;28;20451;-60
2024/01/27 01:07:08;;;;;;;0.80;0.50;;;;;;;-143.84;86.99;45250.91;5093378;28;20436;-61
2024/01/27 01:09:36;;;;;;;1.03;0.93;;;;;;;-143.84;86.80;45224.25;5093844;28;20467;-60
2024/01/27 01:12:04;;;;;;;1.80;1.70;;;;;;;-143.84;87.15;45254.72;5092732;28;20483;-61
2024/01/27 01:14:32;;;;;;;0.80;0.50;;;;;;;-143.84;86.66;45256.63;5093014;28;20451;-60
2024/01/27 01:16:59;;;;;;;1.13;1.03;;;;;;;-143.84;86.48;45239.50;5093037;28;20574;-61
2024/01/27 01:19:28;;;;;;;0.80;0.60;;;;;;;-143.84;86.20;45241.41;5093341;28;20781;-61
2024/01/27 01:21:56;;;;;;;0.80;0.40;;;;;;;-143.84;85.92;45222.34;5093100;28;20444;-60
2024/01/27 01:24:24;;;;;;;0.80;0.50;;;;;;;-143.84;85.62;45220.44;5092916;28;20437;-60
2024/01/27 01:26:53;;;;;;;1.00;0.87;;;;;;;-143.84;85.86;45247.09;5092961;28;20538;-61
2024/01/27 01:29:21;;;;;;;0.80;0.50;;;;;;;-143.84;85.45;45216.63;5092264;28;20475;-61
2024/01/27 01:31:49;;;;;;;0.80;0.60;;;;;;;-143.84;85.26;45243.31;5093172;28;20456;-61
2024/01/27 01:34:16;;;;;;;0.80;0.67;;;;;;;-143.84;85.51;45233.78;5092514;28;20493;-61
2024/01/27 01:36:45;;;;;;;0.80;0.57;;;;;;;-143.84;85.52;45245.19;5092850;28;20807;-60
2024/01/27 01:39:13;;;;;;;0.80;0.50;;;;;;;-143.84;85.77;45250.91;5091970;28;20444;-61
2024/01/27 01:41:41;;;;;;;1.13;0.90;;;;;;;-143.84;85.41;45250.91;5091986;28;20961;-60
2024/01/27 01:44:13;;;;;;;0.80;0.50;;;;;;;-143.84;86.03;45218.53;5092083;28;20498;-61
2024/01/27 01:46:48;;;;;;;1.07;0.93;;;;;;;-143.84;85.77;45243.31;5088819;28;20527;-60
2024/01/27 01:49:16;;;;;;;0.83;0.83;;;;;;;-143.84;85.77;45256.63;5091931;28;20483;-61
2024/01/27 01:51:52;;;;;;;0.80;0.50;;;;;;;-143.84;85.61;45243.31;5092350;28;20446;-60
2024/01/27 01:54:27;;;;;;;1.60;1.50;;;;;;;-143.84;86.03;45233.78;5092284;28;20450;-61
2024/01/27 01:56:56;;;;;;;0.80;0.50;;;;;;;-143.84;85.81;45247.09;5092173;28;20440;-60
2024/01/27 01:59:23;;;;;;;0.80;0.73;;;;;;;-143.84;86.14;45239.50;5092513;28;20443;-61
2024/01/27 02:01:51;;;;;;;0.80;0.50;;;;;;;-143.84;86.61;45228.06;5091769;28;20451;-61
2024/01/27 02:04:20;;;;;;;3.33;1.53;;;;;;;-143.84;86.31;45233.78;5092488;28;20956;-61
2024/01/27 02:06:58;;;;;;;4.40;1.13;;;;;;;-143.84;86.53;45235.69;5091811;28;20538;-62
2024/01/27 02:09:26;;;;;;;0.80;0.50;;;;;;;-143.84;86.23;45262.34;5091025;28;20479;-60
2024/01/27 02:12:06;;;;;;;0.90;0.70;;;;;;;-143.84;86.17;45241.41;5091927;28;20825;-60
2024/01/27 02:14:34;;;;;;;0.80;0.70;;;;;;;-143.84;85.74;45247.09;5091267;28;20467;-60
2024/01/27 02:17:02;;;;;;;0.97;0.87;;;;;;;-143.84;85.23;45237.59;5092364;28;20786;-60
2024/01/27 02:19:30;;;;;;;0.80;0.50;;;;;;;-143.84;85.53;45241.41;5091713;28;20946;-61
2024/01/27 02:21:59;;;;;;;2.93;1.03;;;;;;;-143.84;85.46;45252.81;5092035;28;20815;-60
2024/01/27 02:24:28;;;;;;;2.30;0.83;;;;;;;-143.84;85.29;45222.34;5091991;28;20797;-61
2024/01/27 02:26:58;;;;;;;0.80;0.60;;;;;;;-143.84;84.47;45245.19;5092019;28;20451;-61
2024/01/27 02:29:29;;;;;;;2.83;2.53;;;;;;;-143.84;84.20;45228.06;5090691;28;20494;-60
2024/01/27 02:31:57;;;;;;;0.80;0.60;;;;;;;-143.84;84.95;45216.63;5090994;28;20443;-61
2024/01/27 02:34:25;;;;;;;1.80;0.97;;;;;;;-143.84;85.95;45271.88;5091773;28;20826;-60
2024/01/27 02:36:52;;;;;;;3.10;0.83;;;;;;;-143.84;86.42;45229.97;5073974;28;20988;-61
2024/01/27 02:39:20;;;;;;;0.90;0.73;;;;;;;-143.84;86.31;45249.00;5071567;28;20429;-61
2024/01/27 02:41:50;;;;;;;0.80;0.50;;;;;;;-143.84;86.74;45247.09;5071475;28;20440;-60
2024/01/27 02:44:17;;;;;;;1.33;1.07;;;;;;;-143.84;86.76;45231.88;5071867;28;20494;-62
2024/01/27 02:46:44;;;;;;;1.43;0.93;;;;;;;-143.84;86.34;45239.50;5071572;28;20440;-60
2024/01/27 02:49:12;;;;;;;5.57;1.23;;;;;;;-143.84;86.08;45241.41;5071525;28;20736;-61
2024/01/27 02:51:40;;;;;;;0.90;0.70;;;;;;;-143.84;86.21;45226.16;5071249;28;20459;-61
2024/01/27 02:54:07;;;;;;;1.10;1.00;;;;;;;-143.84;86.42;45237.59;5071793;28;20451;-61
2024/01/27 02:56:34;;;;;;;5.23;1.20;;;;;;;-143.84;86.35;45216.63;5070731;28;20441;-61
2024/01/27 02:59:04;;;;;;;4.10;1.83;;;;;;;-143.84;86.08;45239.50;5071567;28;20468;-61
2024/01/27 03:01:34;;;;;;;18.97;1.47;;;;;;;-143.84;86.43;45239.50;5071414;28;20498;-60
2024/01/27 03:04:02;;;;;;;1.13;1.03;;;;;;;-143.84;86.17;45239.50;5070511;28;20455;-61
2024/01/27 03:06:29;;;;;;;0.80;0.60;;;;;;;-143.84;86.82;45237.59;5071478;28;20447;-61
2024/01/27 03:08:56;;;;;;;1.17;0.63;;;;;;;-143.84;86.88;45243.31;5070824;28;20468;-61
2024/01/27 03:11:24;;;;;;;1.10;0.70;;;;;;;-143.84;87.37;45237.59;5071294;28;20480;-61
2024/01/27 03:13:51;;;;;;;1.97;1.37;;;;;;;-143.84;87.55;45237.59;5071076;28;20965;-61
2024/01/27 03:16:20;;;;;;;0.80;0.50;;;;;;;-143.84;86.59;45247.09;5071149;28;20536;-61
2024/01/27 03:18:48;;;;;;;0.80;0.50;;;;;;;-143.84;87.30;45250.91;5071567;28;20443;-60
2024/01/27 03:21:16;;;;;;;0.80;0.50;;;;;;;-143.84;86.65;45249.00;5071173;28;20441;-60
2024/01/27 03:23:44;;;;;;;0.80;0.50;;;;;;;-143.84;86.51;45239.50;5071006;28;20437;-62
2024/01/27 03:26:12;;;;;;;0.80;0.47;;;;;;;-143.84;86.86;45245.19;5071063;28;20521;-61
2024/01/27 03:28:40;;;;;;;0.80;0.50;;;;;;;-143.84;86.77;45252.81;5071012;28;20444;-60
2024/01/27 03:31:08;;;;;;;0.80;0.50;;;;;;;-143.84;86.68;45247.09;5071173;28;20437;-61
2024/01/27 03:33:39;;;;;;;0.80;0.47;;;;;;;-143.84;86.43;45233.78;5071069;28;20456;-61
2024/01/27 03:36:12;;;;;;;0.80;0.50;;;;;;;-143.84;86.45;45249.00;5070415;28;20440;-62
2024/01/27 03:38:39;;;;;;;0.87;0.70;;;;;;;-143.84;86.93;45224.25;5071067;28;20440;-61
2024/01/27 03:41:08;;;;;;;0.80;0.50;;;;;;;-143.84;86.80;45283.28;5070887;28;20441;-61
2024/01/27 03:43:35;;;;;;;0.80;0.50;;;;;;;-143.84;86.57;45268.06;5070666;28;20448;-61
2024/01/27 03:46:04;;;;;;;0.80;0.70;;;;;;;-143.84;86.36;45254.72;5071217;28;20449;-60
2024/01/27 03:48:32;;;;;;;1.53;1.43;;;;;;;-143.84;85.99;45250.91;5070899;28;20471;-61
2024/01/27 03:51:00;;;;;;;1.63;1.53;;;;;;;-143.84;86.49;45226.16;5070824;28;20527;-62
2024/01/27 03:53:28;;;;;;;0.97;0.87;;;;;;;-143.84;86.12;45258.53;5070856;28;20498;-62
2024/01/27 03:55:58;;;;;;;2.80;1.20;;;;;;;-143.84;85.61;45252.81;5070852;28;20437;-62
2024/01/27 03:58:26;;;;;;;1.30;1.10;;;;;;;-143.84;85.49;45250.91;5070739;28;20509;-61
2024/01/27 04:00:54;;;;;;;0.90;0.63;;;;;;;-143.84;85.33;45252.81;5070919;28;20551;-61
2024/01/27 04:03:22;;;;;;;1.27;1.03;;;;;;;-143.84;85.74;45241.41;5070815;28;20448;-60
2024/01/27 04:05:50;;;;;;;2.00;1.03;;;;;;;-143.84;85.34;45239.50;5070818;28;20432;-61
2024/01/27 04:08:18;;;;;;;2.20;1.00;;;;;;;-143.84;85.37;45256.63;5071737;28;20520;-61
2024/01/27 04:10:46;;;;;;;0.80;0.67;;;;;;;-143.84;85.36;45226.16;5074705;28;20499;-61
2024/01/27 04:13:13;;;;;;;0.80;0.60;;;;;;;-143.84;85.99;45228.06;5074073;28;20479;-60
2024/01/27 04:15:43;;;;;;;0.80;0.50;;;;;;;-143.84;85.54;45245.19;5073987;28;20447;-60
2024/01/27 04:18:15;;;;;;;1.13;0.87;;;;;;;-143.84;85.37;45241.41;5073673;28;20433;-61
2024/01/27 04:20:48;;;;;;;0.80;0.60;;;;;;;-143.84;85.32;45249.00;5073349;28;20532;-60
2024/01/27 04:23:27;;;;;;;0.80;0.67;;;;;;;-143.84;85.56;45254.72;5072346;28;20437;-60
2024/01/27 04:26:01;;;;;;;0.80;0.60;;;;;;;-143.84;85.59;45241.41;5073449;28;20569;-61
2024/01/27 04:28:39;;;;;;;1.00;0.80;;;;;;;-143.84;86.04;45237.59;5072912;28;20447;-61
2024/01/27 04:31:07;;;;;;;0.80;0.40;;;;;;;-143.84;86.45;45228.06;5074211;28;20476;-61
2024/01/27 04:33:34;;;;;;;1.43;1.33;;;;;;;-143.84;86.65;45273.78;5073721;28;20454;-60
2024/01/27 04:36:02;;;;;;;0.80;0.43;;;;;;;-143.84;86.37;45239.50;5073766;28;20456;-61
2024/01/27 04:38:31;;;;;;;2.00;1.90;;;;;;;-143.84;86.60;45235.69;5073844;28;20476;-61
2024/01/27 04:40:59;;;;;;;0.80;0.53;;;;;;;-143.84;86.74;45235.69;5073880;28;20459;-60
2024/01/27 04:43:26;;;;;;;3.23;2.10;;;;;;;-143.84;86.07;45256.63;5073761;28;20448;-60
2024/01/27 04:45:54;;;;;;;0.93;0.83;;;;;;;-143.84;85.73;45224.25;5073599;28;20963;-61
2024/01/27 04:48:22;;;;;;;0.80;0.60;;;;;;;-143.84;85.91;45241.41;5072800;28;20444;-60
2024/01/27 04:50:50;;;;;;;1.73;1.00;;;;;;;-143.84;85.75;45252.81;5073027;28;20484;-61
2024/01/27 04:53:18;;;;;;;0.80;0.50;;;;;;;-143.84;86.02;45254.72;5072745;28;20975;-60
2024/01/27 04:55:47;;;;;;;1.37;0.70;;;;;;;-143.84;85.29;45254.72;5072615;28;21238;-61
2024/01/27 04:58:15;;;;;;;0.80;0.60;;;;;;;-143.84;85.65;45231.88;5073490;28;20458;-60
2024/01/27 05:00:42;;;;;;;0.80;0.73;;;;;;;-143.84;85.46;45247.09;5073836;28;20463;-61
2024/01/27 05:03:13;;;;;;;0.80;0.73;;;;;;;-143.84;84.83;45256.63;5073556;28;20444;-61
2024/01/27 05:05:44;;;;;;;0.80;0.60;;;;;;;-143.84;85.17;45239.50;5072892;28;20449;-60
2024/01/27 05:08:16;;;;;;;0.80;0.50;;;;;;;-143.84;84.78;45231.88;5072125;28;20445;-60
2024/01/27 05:10:44;;;;;;;13.13;0.90;;;;;;;-143.84;85.25;45237.59;5072665;28;20488;-60
2024/01/27 05:13:13;;;;;;;1.03;0.70;;;;;;;-143.84;85.11;45250.91;5081530;28;20491;-58
2024/01/27 05:15:40;;;;;;;1.20;0.80;;;;;;;-143.84;84.46;45249.00;5090721;28;20450;-58
2024/01/27 05:18:07;;;;;;;1.10;1.00;;;;;;;-143.84;84.56;45273.78;5090483;28;20947;-58
2024/01/27 05:20:34;;;;;;;0.80;0.60;;;;;;;-143.84;84.89;45231.88;5090010;28;20443;-58
2024/01/27 05:23:01;;;;;;;0.80;0.60;;;;;;;-143.84;84.89;45228.06;5090831;28;20929;-58
2024/01/27 05:25:29;;;;;;;0.80;0.60;;;;;;;-143.84;84.01;45224.25;5090465;28;20447;-58
2024/01/27 05:27:56;;;;;;;0.80;0.60;;;;;;;-143.84;84.46;45235.69;5090100;28;20843;-58
2024/01/27 05:30:24;;;;;;;0.80;0.50;;;;;;;-143.84;84.21;45243.31;5090293;28;20487;-58
2024/01/27 05:32:51;;;;;;;0.80;0.50;;;;;;;-143.84;84.06;45220.44;5090415;28;21062;-58
2024/01/27 05:35:19;;;;;;;0.80;0.50;;;;;;;-143.84;83.26;45235.69;5085798;28;20429;-58
2024/01/27 05:37:46;;;;;;;0.80;0.60;;;;;;;-143.84;83.65;45243.31;5086105;28;20836;-58
2024/01/27 05:40:14;;;;;;;0.80;0.50;;;;;;;-143.84;83.32;45222.34;5090260;28;20452;-58
2024/01/27 05:42:43;;;;;;;1.20;0.90;;;;;;;-143.84;82.78;45233.78;5089847;28;20452;-58
2024/01/27 05:45:11;;;;;;;1.20;1.10;;;;;;;-143.84;82.60;45226.16;5089961;28;20834;-57
2024/01/27 05:47:39;;;;;;;1.63;0.80;;;;;;;-143.84;82.10;45247.09;5084826;28;20578;-58
2024/01/27 05:50:08;;;;;;;0.80;0.70;;;;;;;-143.84;82.34;45207.13;5069745;28;20489;-58
2024/01/27 05:52:35;;;;;;;0.80;0.60;;;;;;;-143.84;81.65;45195.69;5091236;28;20444;-61
2024/01/27 05:55:03;;;;;;;0.80;0.50;;;;;;;-143.84;81.62;45237.59;5092434;28;21300;-61
2024/01/27 05:57:30;;;;;;;0.87;0.80;;;;;;;-143.84;80.69;45249.00;5092402;28;20431;-61
2024/01/27 05:59:57;;;;;;;0.80;0.60;;;;;;;-143.84;80.65;45233.78;5092224;28;20987;-60
2024/01/27 06:02:24;;;;;;;0.80;0.50;;;;;;;-143.84;80.22;45210.94;5092635;28;20451;-61
2024/01/27 06:04:53;;;;;;;0.80;0.63;;;;;;;-143.84;79.67;45212.84;5092411;28;20444;-60
2024/01/27 06:07:20;;;;;;;0.80;0.60;;;;;;;-143.84;79.45;45224.25;5092846;28;20430;-61
2024/01/27 06:09:47;;;;;;;1.17;1.07;;;;;;;-143.84;79.26;45231.88;5092109;28;20544;-61
2024/01/27 06:12:14;;;;;;;0.80;0.60;;;;;;;-143.84;78.92;45216.63;5091801;28;20484;-62
2024/01/27 06:14:42;;;;;;;0.80;0.60;;;;;;;-143.84;78.68;45209.03;5092324;28;20432;-62
2024/01/27 06:17:09;;;;;;;5.27;2.30;;;;;;;-143.84;78.14;45229.97;5092067;28;20468;-61
2024/01/27 06:19:37;;;;;;;0.80;0.60;;;;;;;-143.84;77.74;45218.53;5092201;28;20443;-61
2024/01/27 06:22:05;;;;;;;0.87;0.57;;;;;;;-143.84;77.20;45256.63;5092311;28;20429;-61
2024/01/27 06:24:32;;;;;;;0.80;0.60;;;;;;;-143.84;76.66;45224.25;5092296;28;20506;-60
2024/01/27 06:26:59;;;;;;;0.80;0.60;;;;;;;-143.84;76.62;45237.59;5092014;28;20430;-61
2024/01/27 06:29:27;;;;;;;0.80;0.50;;;;;;;-143.84;76.79;45224.25;5091789;28;20428;-60
2024/01/27 06:31:54;;;;;;;0.80;0.50;;;;;;;-143.84;76.69;45228.06;5091865;28;20528;-61
2024/01/27 06:34:21;;;;;;;0.90;0.77;;;;;;;-143.84;76.88;45216.63;5092281;28;20427;-62
2024/01/27 06:36:48;;;;;;;0.80;0.50;;;;;;;-143.84;76.72;45214.72;5091870;28;20469;-62
2024/01/27 06:39:17;;;;;;;0.90;0.60;;;;;;;-143.84;76.75;45205.22;5092146;28;20437;-61
2024/01/27 06:41:44;;;;;;;0.80;0.70;;;;;;;-143.84;76.61;45241.41;5091609;28;20444;-61
2024/01/27 06:44:11;;;;;;;1.00;0.70;;;;;;;-143.84;76.77;45228.06;5092044;28;20437;-61
2024/01/27 06:46:38;;;;;;;0.80;0.50;;;;;;;-143.84;76.23;45249.00;5091487;28;20424;-62
2024/01/27 06:49:05;;;;;;;0.80;0.40;;;;;;;-143.84;76.16;45224.25;5091556;28;20430;-61
2024/01/27 06:51:32;;;;;;;0.80;0.50;;;;;;;-143.84;75.63;45214.72;5091778;28;20480;-61
2024/01/27 06:54:00;;;;;;;1.17;1.07;;;;;;;-143.84;75.75;45222.34;5091816;28;20774;-60
2024/01/27 06:56:28;;;;;;;0.80;0.50;;;;;;;-143.84;75.50;45258.53;5091515;28;20445;-63
2024/01/27 06:58:55;;;;;;;2.90;0.80;;;;;;;-143.84;74.65;45247.09;5091739;28;20446;-61
2024/01/27 07:01:22;;;;;;;0.80;0.50;;;;;;;-143.84;74.55;45201.41;5091444;28;20449;-60
2024/01/27 07:03:49;;;;;;;0.80;0.70;;;;;;;-143.84;73.56;45212.84;5091366;28;20947;-60
2024/01/27 07:06:17;;;;;;;2.43;2.10;;;;;;;-143.84;73.30;45207.13;5091532;28;20446;-60
2024/01/27 07:08:44;;;;;;;1.13;1.03;;;;;;;-143.84;72.69;45201.41;5091341;28;20442;-60
2024/01/27 07:11:12;;;;;;;1.80;1.70;;;;;;;-143.84;71.73;45216.63;5091443;28;20853;-61
2024/01/27 07:13:42;;;;;;;0.80;0.70;;;;;;;-143.84;70.17;45197.59;5091326;28;20534;-61
2024/01/27 07:16:09;;;;;;;0.80;0.57;;;;;;;-143.84;69.00;45207.13;5091697;28;20439;-60
2024/01/27 07:18:36;;;;;;;1.13;1.03;;;;;;;-143.84;68.72;45188.06;5091142;28;20507;-62
2024/01/27 07:21:05;;;;;;;0.80;0.60;;;;;;;-143.84;67.89;45205.22;5091095;28;20428;-62
2024/01/27 07:23:32;;;;;;;0.80;0.50;;;;;;;-143.84;67.99;45180.47;5091635;28;21086;-61
2024/01/27 07:26:03;;;;;;;0.90;0.80;;;;;;;-143.84;68.15;45201.41;5091534;28;20450;-61
2024/01/27 07:28:30;;;;;;;1.20;0.90;;;;;;;-143.84;67.30;45203.31;5091100;28;20494;-60
2024/01/27 07:30:58;;;;;;;1.43;0.87;;;;;;;-143.84;66.63;45209.03;5091149;28;20467;-60
2024/01/27 07:33:25;;;;;;;0.83;0.67;;;;;;;-143.84;66.62;45205.22;5091506;28;20948;-60
2024/01/27 07:35:53;;;;;;;0.80;0.50;;;;;;;-143.84;67.44;45193.78;5090851;28;20436;-61
2024/01/27 07:38:20;;;;;;;0.80;0.50;;;;;;;-143.84;67.29;45209.03;5091612;28;20431;-62
2024/01/27 07:40:47;;;;;;;1.03;0.60;;;;;;;-143.84;67.98;45214.72;5091135;28;20446;-60
2024/01/27 07:43:14;;;;;;;0.80;0.40;;;;;;;-143.84;68.11;45216.63;5092104;28;21137;-61
2024/01/27 07:45:41;;;;;;;1.17;0.80;;;;;;;-143.84;68.00;45239.50;5095015;28;20495;-61
2024/01/27 07:48:10;;;;;;;0.80;0.50;;;;;;;-143.84;68.08;45205.22;5095215;28;20453;-60
2024/01/27 07:50:37;;;;;;;1.67;0.70;;;;;;;-143.84;68.58;45212.84;5094606;28;20475;-61
2024/01/27 07:53:05;;;;;;;2.03;1.27;;;;;;;-143.84;68.28;45199.50;5094733;28;20438;-60
2024/01/27 07:55:32;;;;;;;0.80;0.40;;;;;;;-143.84;67.53;45214.72;5094937;28;20450;-60
2024/01/27 07:58:00;;;;;;;0.80;0.60;;;;;;;-143.84;68.48;45220.44;5094443;28;20435;-61
2024/01/27 08:00:27;;;;;;;1.13;0.97;;;;;;;-143.84;68.63;45199.50;5094556;28;20857;-60
2024/01/27 08:02:54;;;;;;;1.87;1.17;;;;;;;-143.84;68.92;45210.94;5094101;28;20470;-61
2024/01/27 08:05:23;;;;;;;0.83;0.60;;;;;;;-143.84;68.24;45214.72;5094284;28;20454;-61
2024/01/27 08:07:50;;;;;;;0.80;0.60;;;;;;;-143.84;68.45;45231.88;5094881;28;20969;-61
2024/01/27 08:10:17;;;;;;;0.80;0.50;;;;;;;-143.84;68.63;45209.03;5094194;28;20479;-62
2024/01/27 08:12:44;;;;;;;0.80;0.50;;;;;;;-143.84;68.74;45197.59;5089331;28;20529;-61
2024/01/27 08:15:13;;;;;;;2.93;1.87;;;;;;;-143.84;68.52;45203.31;5074420;28;20428;-60
2024/01/27 08:17:40;;;;;;;0.80;0.50;;;;;;;-143.84;67.81;45226.16;5074641;28;20429;-63
2024/01/27 08:20:09;;;;;;;1.20;0.97;;;;;;;-143.84;68.43;45209.03;5074096;28;20463;-59
2024/01/27 08:22:38;;;;;;;2.43;1.90;;;;;;;-143.84;67.96;45210.94;5073897;28;20845;-60
2024/01/27 08:25:06;;;;;;;0.90;0.63;;;;;;;-143.84;67.17;45212.84;5073936;28;20436;-60
2024/01/27 08:27:33;;;;;;;1.23;0.90;;;;;;;-143.84;66.84;45174.75;5084247;28;20456;-57
2024/01/27 08:30:00;;;;;;;1.87;1.77;;;;;;;-143.84;67.11;45201.41;5091856;28;20811;-57
2024/01/27 08:32:27;;;;;;;2.00;1.90;;;;;;;-143.84;67.95;45193.78;5091182;28;20448;-57
2024/01/27 08:34:54;;;;;;;0.90;0.70;;;;;;;-143.84;68.97;45193.78;5091313;28;20481;-57
2024/01/27 08:37:22;;;;;;;0.90;0.80;;;;;;;-143.84;69.17;45180.47;5091581;28;20433;-57
2024/01/27 08:39:51;;;;;;;0.80;0.53;;;;;;;-143.84;68.92;45188.06;5091313;28;20450;-57
2024/01/27 08:42:18;;;;;;;1.90;1.80;;;;;;;-143.84;68.80;45199.50;5091515;28;20479;-57
2024/01/27 08:44:46;;;;;;;1.17;1.07;;;;;;;-143.84;68.92;45222.34;5091845;28;20436;-57
2024/01/27 08:47:13;;;;;;;1.23;1.13;;;;;;;-143.84;69.66;45205.22;5091097;28;21091;-57
2024/01/27 08:49:41;;;;;;;2.07;1.30;;;;;;;-143.84;70.43;45224.25;5091651;28;20557;-57
2024/01/27 08:52:08;;;;;;;1.60;1.50;;;;;;;-143.84;70.19;45212.84;5091511;28;20588;-57
2024/01/27 08:54:35;;;;;;;2.93;1.57;;;;;;;-143.84;70.71;45222.34;5091369;28;20454;-57
2024/01/27 08:57:04;;;;;;;1.00;0.90;;;;;;;-143.84;71.09;45231.88;5091222;28;20443;-57
2024/01/27 08:59:32;;;;;;;1.50;0.93;;;;;;;-143.84;70.86;45229.97;5091326;28;20838;-57
2024/01/27 09:01:59;;;;;;;2.50;1.83;;;;;;;-143.84;71.06;45241.41;5090567;28;20440;-57
2024/01/27 09:04:26;;;;;;;4.13;2.30;;;;;;;-143.84;71.28;45205.22;5091078;28;20929;-57
2024/01/27 09:06:53;;;;;;;1.13;1.03;;;;;;;-143.84;71.36;45191.88;5090899;28;20454;-57
2024/01/27 09:09:20;;;;;;;3.63;1.00;;;;;;;-143.84;71.81;45226.16;5090683;28;20497;-57
2024/01/27 09:11:48;;;;;;;0.80;0.60;;;;;;;-143.84;70.84;45209.03;5090652;28;21020;-57
2024/01/27 09:14:16;;;;;;;1.20;1.10;;;;;;;-143.84;70.51;45226.16;5091323;28;20569;-57
2024/01/27 09:16:45;;;;;;;1.50;1.40;;;;;;;-143.84;70.77;45195.69;5090437;28;20444;-57
2024/01/27 09:19:12;;;;;;;2.80;0.93;;;;;;;-143.84;71.17;45214.72;5090523;28;20438;-57
2024/01/27 09:21:40;;;;;;;2.00;1.70;;;;;;;-143.84;69.74;45235.69;5090871;28;20473;-57
2024/01/27 09:24:08;;;;;;;1.83;1.17;;;;;;;-143.84;69.31;45186.16;5090465;28;20478;-57
2024/01/27 09:26:35;;;;;;;0.93;0.83;;;;;;;-143.84;70.00;45191.88;5090464;28;20451;-57
2024/01/27 09:29:02;;;;;;;2.80;1.23;;;;;;;-143.84;70.85;45201.41;5090542;28;20936;-57
2024/01/27 09:31:30;;;;;;;0.90;0.80;;;;;;;-143.84;70.77;45228.06;5090519;28;20500;-57
2024/01/27 09:33:57;;;;;;;1.03;0.93;;;;;;;-143.84;70.02;45210.94;5090729;28;20953;-57
2024/01/27 09:36:25;;;;;;;1.63;1.33;;;;;;;-143.84;69.21;45191.88;5075590;28;20449;-57
2024/01/27 09:38:54;;;;;;;1.90;1.70;;;;;;;-143.84;69.86;45201.41;5070015;28;20579;-57
2024/01/27 09:41:22;;;;;;;1.33;1.23;;;;;;;-143.84;69.69;45214.72;5085398;28;20451;-57
2024/01/27 09:43:49;;;;;;;1.47;1.37;;;;;;;-143.84;70.02;45212.84;5090505;28;20443;-57
2024/01/27 09:46:17;;;;;;;3.30;1.70;;;;;;;-143.84;70.26;45188.06;5089593;28;21032;-57
2024/01/27 09:48:46;;;;;;;12.60;1.93;;;;;;;-143.84;70.33;45205.22;5089958;28;20440;-57
2024/01/27 09:51:13;;;;;;;1.63;1.43;;;;;;;-143.84;70.29;45233.78;5090126;28;20491;-57
2024/01/27 09:53:41;;;;;;;1.43;1.23;;;;;;;-143.84;69.62;45184.25;5090232;28;20964;-57
2024/01/27 09:56:10;;;;;;;2.70;1.27;;;;;;;-143.84;69.12;45210.94;5087968;28;20447;-57
2024/01/27 09:58:38;;;;;;;2.63;2.00;;;;;;;-143.84;69.51;45224.25;5072614;28;20441;-58
2024/01/27 10:01:06;;;;;;;1.10;0.93;;;;;;;-143.84;69.28;45201.41;5069321;28;20888;-58
2024/01/27 10:03:35;;;;;;;0.90;0.67;;;;;;;-143.84;68.58;45231.88;5069435;28;20860;-58
2024/01/27 10:06:09;;;;;;;3.37;1.60;;;;;;;-143.84;68.00;45201.41;5069320;28;21035;-58
2024/01/27 10:08:36;;;;;;;1.33;0.97;;;;;;;-143.84;67.18;45201.41;5069660;28;20502;-58
2024/01/27 10:11:08;;;;;;;2.23;1.50;;;;;;;-143.84;67.22;45212.84;5069140;28;20491;-58
2024/01/27 10:13:35;;;;;;;1.20;0.60;;;;;;;-143.84;66.58;45191.88;5069306;28;20439;-58
2024/01/27 10:16:03;;;;;;;2.13;1.63;;;;;;;-143.84;66.41;45195.69;5068758;28;20483;-58
2024/01/27 10:18:30;;;;;;;1.23;1.13;;;;;;;-143.84;65.90;45218.53;5069598;28;20433;-58
2024/01/27 10:20:57;;;;;;;1.13;0.80;;;;;;;-143.84;65.62;45170.94;5069262;28;20448;-58
2024/01/27 10:23:26;;;;;;;0.80;0.60;;;;;;;-143.84;66.64;45203.31;5069178;28;20486;-58
2024/01/27 10:25:54;;;;;;;0.80;0.50;;;;;;;-143.84;65.47;45203.31;5069358;28;20445;-58
2024/01/27 10:28:22;;;;;;;0.90;0.80;;;;;;;-143.84;64.50;45214.72;5069374;28;20988;-58
2024/01/27 10:30:49;;;;;;;1.07;0.87;;;;;;;-143.84;64.14;45191.88;5068956;28;20520;-58
2024/01/27 10:33:17;;;;;;;1.07;0.90;;;;;;;-143.84;63.38;45191.88;5068913;28;21039;-57
2024/01/27 10:35:44;;;;;;;1.63;0.70;;;;;;;-143.84;63.74;45188.06;5069095;28;21255;-57
2024/01/27 10:38:11;;;;;;;1.27;1.17;;;;;;;-143.84;64.22;45189.97;5069222;28;20490;-57
2024/01/27 10:40:40;;;;;;;0.90;0.77;;;;;;;-143.84;64.56;45174.75;5069304;28;20433;-58
2024/01/27 10:43:08;;;;;;;1.43;1.33;;;;;;;-143.84;64.39;45201.41;5069175;28;20445;-57
2024/01/27 10:45:39;;;;;;;1.10;1.00;;;;;;;-143.84;63.43;45210.94;5068472;28;20440;-58
2024/01/27 10:48:09;;;;;;;2.93;1.27;;;;;;;-143.84;64.30;45186.16;5068980;28;20845;-58
2024/01/27 10:50:38;;;;;;;1.03;0.93;;;;;;;-143.84;64.45;45205.22;5069052;28;20538;-58
2024/01/27 10:53:09;;;;;;;1.37;1.27;;;;;;;-143.84;64.66;45165.22;5069096;28;20530;-58
2024/01/27 10:55:38;;;;;;;5.70;5.17;;;;;;;-143.84;63.68;45186.16;5069140;28;20441;-58
2024/01/27 10:58:07;;;;;;;0.97;0.60;;;;;;;-143.84;63.94;45197.59;5068063;28;21350;-58
2024/01/27 11:00:35;;;;;;;1.37;1.23;;;;;;;-143.84;64.39;45155.69;5078516;28;20441;-58
2024/01/27 11:03:04;;;;;;;1.00;0.80;;;;;;;-143.84;64.51;45201.41;5068706;28;20433;-58
2024/01/27 11:05:36;;;;;;;1.73;0.90;;;;;;;-143.84;64.60;45195.69;5068513;28;20444;-58
2024/01/27 11:08:06;;;;;;;1.57;1.47;;;;;;;-143.84;65.03;45193.78;5068300;28;20487;-58
2024/01/27 11:10:35;;;;;;;0.90;0.60;;;;;;;-143.84;65.68;45207.13;5067896;28;20490;-58
2024/01/27 11:13:05;;;;;;;2.40;2.13;;;;;;;-143.84;65.42;45201.41;5068186;28;21049;-57
2024/01/27 11:15:34;;;;;;;0.83;0.57;;;;;;;-143.84;65.88;45195.69;5067318;28;20429;-57
2024/01/27 11:18:02;;;;;;;0.87;0.73;;;;;;;-143.84;67.16;45228.06;5069000;28;20441;-58
2024/01/27 11:20:31;;;;;;;0.80;0.60;;;;;;;-143.84;66.41;45210.94;5072587;28;20436;-58